sensor_id;sensor_type;location;lat;lon;timestamp;pressure;altitude;pressure_sealevel;temperature;humidity
9746;BME280;4912;50.836;12.958;2023-07-29T00:01:03;97240.28;;;21.45;96.43
9746;BME280;4912;50.836;12.958;2023-07-29T00:03:33;97237.31;;;21.51;95.89
9746;BME280;4912;50.836;12.958;2023-07-29T00:06:04;97235.56;;;21.40;96.47
9746;BME280;4912;50.836;12.958;2023-07-29T00:08:34;97232.59;;;21.38;96.84
9746;BME280;4912;50.836;12.958;2023-07-29T00:11:05;97234.81;;;21.32;96.89
9746;BME280;4912;50.836;12.958;2023-07-29T00:13:35;97229.16;;;21.32;97.19
9746;BME280;4912;50.836;12.958;2023-07-29T00:16:09;97232.31;;;21.29;97.27
9746;BME280;4912;50.836;12.958;2023-07-29T00:18:39;97230.50;;;21.39;96.54
9746;BME280;4912;50.836;12.958;2023-07-29T00:21:10;97231.81;;;21.38;96.47
9746;BME280;4912;50.836;12.958;2023-07-29T00:23:41;97220.72;;;21.32;96.58
9746;BME280;4912;50.836;12.958;2023-07-29T00:26:11;97225.28;;;21.43;96.13
9746;BME280;4912;50.836;12.958;2023-07-29T00:28:41;97224.13;;;21.38;96.44
9746;BME280;4912;50.836;12.958;2023-07-29T00:31:15;97220.53;;;21.30;96.75
9746;BME280;4912;50.836;12.958;2023-07-29T00:33:48;97228.22;;;21.30;96.85
9746;BME280;4912;50.836;12.958;2023-07-29T00:36:20;97226.16;;;21.30;96.87
9746;BME280;4912;50.836;12.958;2023-07-29T00:38:50;97223.53;;;21.32;96.33
9746;BME280;4912;50.836;12.958;2023-07-29T00:41:22;97217.94;;;21.40;95.79
9746;BME280;4912;50.836;12.958;2023-07-29T00:43:53;97216.47;;;21.46;95.49
9746;BME280;4912;50.836;12.958;2023-07-29T00:46:26;97212.34;;;21.47;94.91
9746;BME280;4912;50.836;12.958;2023-07-29T00:48:58;97209.66;;;21.34;95.43
9746;BME280;4912;50.836;12.958;2023-07-29T00:51:29;97210.19;;;21.33;96.04
9746;BME280;4912;50.836;12.958;2023-07-29T00:53:59;97206.66;;;21.32;96.06
9746;BME280;4912;50.836;12.958;2023-07-29T00:56:30;97211.88;;;21.28;96.12
9746;BME280;4912;50.836;12.958;2023-07-29T00:59:04;97209.81;;;21.29;96.08
9746;BME280;4912;50.836;12.958;2023-07-29T01:01:37;97207.91;;;21.23;96.63
9746;BME280;4912;50.836;12.958;2023-07-29T01:04:08;97196.13;;;21.33;95.74
9746;BME280;4912;50.836;12.958;2023-07-29T01:06:44;97191.84;;;21.32;95.89
9746;BME280;4912;50.836;12.958;2023-07-29T01:09:25;97193.53;;;21.35;95.64
9746;BME280;4912;50.836;12.958;2023-07-29T01:12:06;97182.22;;;21.27;95.83
9746;BME280;4912;50.836;12.958;2023-07-29T01:14:41;97185.63;;;21.26;96.43
9746;BME280;4912;50.836;12.958;2023-07-29T01:17:24;97184.44;;;21.21;96.44
9746;BME280;4912;50.836;12.958;2023-07-29T01:20:01;97191.75;;;21.16;96.84
9746;BME280;4912;50.836;12.958;2023-07-29T01:22:38;97192.50;;;21.17;97.11
9746;BME280;4912;50.836;12.958;2023-07-29T01:25:11;97179.19;;;21.17;96.80
9746;BME280;4912;50.836;12.958;2023-07-29T01:27:44;97172.09;;;21.24;96.28
9746;BME280;4912;50.836;12.958;2023-07-29T01:30:19;97174.19;;;21.31;95.76
9746;BME280;4912;50.836;12.958;2023-07-29T01:32:56;97169.66;;;21.28;95.66
9746;BME280;4912;50.836;12.958;2023-07-29T01:35:34;97175.81;;;21.19;96.67
9746;BME280;4912;50.836;12.958;2023-07-29T01:38:14;97171.25;;;21.08;97.19
9746;BME280;4912;50.836;12.958;2023-07-29T01:40:50;97171.19;;;21.01;97.91
9746;BME280;4912;50.836;12.958;2023-07-29T01:43:23;97168.50;;;20.88;99.15
9746;BME280;4912;50.836;12.958;2023-07-29T01:45:54;97176.88;;;20.80;99.90
9746;BME280;4912;50.836;12.958;2023-07-29T01:48:25;97179.13;;;20.81;99.80
9746;BME280;4912;50.836;12.958;2023-07-29T01:50:57;97185.91;;;20.86;99.66
9746;BME280;4912;50.836;12.958;2023-07-29T01:53:28;97192.09;;;20.84;100.00
9746;BME280;4912;50.836;12.958;2023-07-29T01:56:02;97196.00;;;20.81;99.89
9746;BME280;4912;50.836;12.958;2023-07-29T01:58:35;97195.84;;;20.87;99.50
9746;BME280;4912;50.836;12.958;2023-07-29T02:01:06;97204.59;;;20.76;100.00
9746;BME280;4912;50.836;12.958;2023-07-29T02:03:36;97201.38;;;20.72;100.00
9746;BME280;4912;50.836;12.958;2023-07-29T02:06:07;97213.94;;;20.71;100.00
9746;BME280;4912;50.836;12.958;2023-07-29T02:08:37;97210.72;;;20.67;100.00
9746;BME280;4912;50.836;12.958;2023-07-29T02:11:11;97206.59;;;20.68;100.00
9746;BME280;4912;50.836;12.958;2023-07-29T02:13:41;97209.28;;;20.73;100.00
9746;BME280;4912;50.836;12.958;2023-07-29T02:16:12;97211.28;;;20.65;100.00
9746;BME280;4912;50.836;12.958;2023-07-29T02:18:42;97208.47;;;20.65;100.00
9746;BME280;4912;50.836;12.958;2023-07-29T02:21:13;97204.13;;;20.64;100.00
9746;BME280;4912;50.836;12.958;2023-07-29T02:23:44;97214.84;;;20.66;100.00
9746;BME280;4912;50.836;12.958;2023-07-29T02:26:17;97217.16;;;20.75;100.00
9746;BME280;4912;50.836;12.958;2023-07-29T02:28:48;97217.56;;;20.79;100.00
9746;BME280;4912;50.836;12.958;2023-07-29T02:31:22;97209.16;;;20.87;99.62
9746;BME280;4912;50.836;12.958;2023-07-29T02:33:54;97213.78;;;20.76;100.00
9746;BME280;4912;50.836;12.958;2023-07-29T02:36:25;97211.78;;;20.84;99.60
9746;BME280;4912;50.836;12.958;2023-07-29T02:38:56;97211.78;;;20.84;99.40
9746;BME280;4912;50.836;12.958;2023-07-29T02:41:29;97213.50;;;20.88;99.45
9746;BME280;4912;50.836;12.958;2023-07-29T02:44:01;97206.56;;;20.89;99.24
9746;BME280;4912;50.836;12.958;2023-07-29T02:46:32;97210.06;;;20.81;99.86
9746;BME280;4912;50.836;12.958;2023-07-29T02:49:03;97204.81;;;20.78;99.79
9746;BME280;4912;50.836;12.958;2023-07-29T02:51:34;97212.50;;;20.77;100.00
9746;BME280;4912;50.836;12.958;2023-07-29T02:54:05;97215.47;;;20.79;99.88
9746;BME280;4912;50.836;12.958;2023-07-29T02:56:38;97206.94;;;20.85;99.67
9746;BME280;4912;50.836;12.958;2023-07-29T02:59:09;97206.56;;;20.89;99.47
9746;BME280;4912;50.836;12.958;2023-07-29T03:01:39;97212.03;;;20.94;98.72
9746;BME280;4912;50.836;12.958;2023-07-29T03:04:10;97215.41;;;20.93;98.70
9746;BME280;4912;50.836;12.958;2023-07-29T03:06:41;97203.22;;;20.90;99.02
9746;BME280;4912;50.836;12.958;2023-07-29T03:09:11;97208.69;;;20.96;98.73
9746;BME280;4912;50.836;12.958;2023-07-29T03:11:44;97200.25;;;20.96;98.52
9746;BME280;4912;50.836;12.958;2023-07-29T03:14:15;97202.84;;;20.94;98.75
9746;BME280;4912;50.836;12.958;2023-07-29T03:16:45;97196.31;;;20.99;98.05
9746;BME280;4912;50.836;12.958;2023-07-29T03:19:16;97198.19;;;20.96;98.27
9746;BME280;4912;50.836;12.958;2023-07-29T03:21:47;97194.78;;;20.98;98.33
9746;BME280;4912;50.836;12.958;2023-07-29T03:24:18;97198.94;;;20.97;98.65
9746;BME280;4912;50.836;12.958;2023-07-29T03:26:51;97182.84;;;21.05;97.78
9746;BME280;4912;50.836;12.958;2023-07-29T03:29:21;97179.31;;;21.12;96.98
9746;BME280;4912;50.836;12.958;2023-07-29T03:31:52;97180.41;;;21.09;97.36
9746;BME280;4912;50.836;12.958;2023-07-29T03:34:22;97193.75;;;21.08;96.96
9746;BME280;4912;50.836;12.958;2023-07-29T03:36:53;97194.00;;;21.18;96.80
9746;BME280;4912;50.836;12.958;2023-07-29T03:39:24;97190.66;;;21.19;96.55
9746;BME280;4912;50.836;12.958;2023-07-29T03:41:57;97195.16;;;21.22;95.68
9746;BME280;4912;50.836;12.958;2023-07-29T03:44:27;97190.78;;;21.14;96.46
9746;BME280;4912;50.836;12.958;2023-07-29T03:46:59;97197.72;;;21.13;96.34
9746;BME280;4912;50.836;12.958;2023-07-29T03:49:30;97184.06;;;21.17;96.65
9746;BME280;4912;50.836;12.958;2023-07-29T03:52:01;97202.59;;;21.12;96.15
9746;BME280;4912;50.836;12.958;2023-07-29T03:54:32;97198.88;;;21.17;96.21
9746;BME280;4912;50.836;12.958;2023-07-29T03:57:05;97195.84;;;21.15;95.89
9746;BME280;4912;50.836;12.958;2023-07-29T03:59:36;97203.13;;;21.11;96.76
9746;BME280;4912;50.836;12.958;2023-07-29T04:02:06;97199.75;;;21.12;96.60
9746;BME280;4912;50.836;12.958;2023-07-29T04:04:37;97207.59;;;21.06;96.99
9746;BME280;4912;50.836;12.958;2023-07-29T04:07:09;97201.44;;;21.08;96.96
9746;BME280;4912;50.836;12.958;2023-07-29T04:09:40;97202.59;;;21.12;96.89
9746;BME280;4912;50.836;12.958;2023-07-29T04:12:13;97199.94;;;21.07;97.31
9746;BME280;4912;50.836;12.958;2023-07-29T04:14:44;97209.38;;;21.17;96.57
9746;BME280;4912;50.836;12.958;2023-07-29T04:17:15;97206.56;;;21.17;96.19
9746;BME280;4912;50.836;12.958;2023-07-29T04:19:45;97196.13;;;21.25;95.58
9746;BME280;4912;50.836;12.958;2023-07-29T04:22:17;97194.59;;;21.24;95.24
9746;BME280;4912;50.836;12.958;2023-07-29T04:24:48;97190.06;;;21.21;95.81
9746;BME280;4912;50.836;12.958;2023-07-29T04:27:21;97184.16;;;21.32;95.38
9746;BME280;4912;50.836;12.958;2023-07-29T04:29:52;97183.03;;;21.35;94.69
9746;BME280;4912;50.836;12.958;2023-07-29T04:32:22;97192.78;;;21.34;94.66
9746;BME280;4912;50.836;12.958;2023-07-29T04:34:53;97190.31;;;21.31;94.71
9746;BME280;4912;50.836;12.958;2023-07-29T04:37:24;97184.53;;;21.36;94.48
9746;BME280;4912;50.836;12.958;2023-07-29T04:39:54;97190.38;;;21.38;93.66
9746;BME280;4912;50.836;12.958;2023-07-29T04:42:27;97183.78;;;21.36;93.69
9746;BME280;4912;50.836;12.958;2023-07-29T04:44:58;97189.41;;;21.36;94.10
9746;BME280;4912;50.836;12.958;2023-07-29T04:47:31;97194.44;;;21.30;94.39
9746;BME280;4912;50.836;12.958;2023-07-29T04:50:02;97187.56;;;21.38;93.54
9746;BME280;4912;50.836;12.958;2023-07-29T04:52:33;97191.25;;;21.33;93.39
9746;BME280;4912;50.836;12.958;2023-07-29T04:55:04;97188.69;;;21.50;92.87
9746;BME280;4912;50.836;12.958;2023-07-29T04:57:41;97192.84;;;21.49;92.43
9746;BME280;4912;50.836;12.958;2023-07-29T05:00:11;97181.19;;;21.45;92.62
9746;BME280;4912;50.836;12.958;2023-07-29T05:02:42;97178.94;;;21.51;92.38
9746;BME280;4912;50.836;12.958;2023-07-29T05:05:13;97169.19;;;21.52;91.95
9746;BME280;4912;50.836;12.958;2023-07-29T05:07:43;97170.94;;;21.71;90.72
9746;BME280;4912;50.836;12.958;2023-07-29T05:10:14;97167.56;;;21.80;89.87
9746;BME280;4912;50.836;12.958;2023-07-29T05:12:47;97168.34;;;21.88;89.50
9746;BME280;4912;50.836;12.958;2023-07-29T05:15:18;97167.81;;;21.89;88.68
9746;BME280;4912;50.836;12.958;2023-07-29T05:17:48;97161.84;;;22.00;87.77
9746;BME280;4912;50.836;12.958;2023-07-29T05:20:19;97156.38;;;22.10;87.39
9746;BME280;4912;50.836;12.958;2023-07-29T05:22:49;97157.34;;;22.13;87.36
9746;BME280;4912;50.836;12.958;2023-07-29T05:25:20;97159.41;;;22.20;86.76
9746;BME280;4912;50.836;12.958;2023-07-29T05:27:53;97157.34;;;22.35;85.85
9746;BME280;4912;50.836;12.958;2023-07-29T05:30:24;97154.72;;;22.37;85.35
9746;BME280;4912;50.836;12.958;2023-07-29T05:32:58;97160.91;;;22.51;85.14
9746;BME280;4912;50.836;12.958;2023-07-29T05:35:28;97156.22;;;22.54;83.47
9746;BME280;4912;50.836;12.958;2023-07-29T05:37:59;97155.25;;;22.59;83.94
9746;BME280;4912;50.836;12.958;2023-07-29T05:40:30;97151.88;;;22.75;82.95
9746;BME280;4912;50.836;12.958;2023-07-29T05:43:03;97162.00;;;22.86;82.28
9746;BME280;4912;50.836;12.958;2023-07-29T05:45:34;97158.84;;;22.82;81.79
9746;BME280;4912;50.836;12.958;2023-07-29T05:48:05;97170.31;;;22.84;81.34
9746;BME280;4912;50.836;12.958;2023-07-29T05:50:35;97165.97;;;22.83;81.42
9746;BME280;4912;50.836;12.958;2023-07-29T05:53:05;97177.25;;;22.60;81.57
9746;BME280;4912;50.836;12.958;2023-07-29T05:55:36;97176.31;;;22.58;81.63
9746;BME280;4912;50.836;12.958;2023-07-29T05:58:09;97169.91;;;22.65;81.43
9746;BME280;4912;50.836;12.958;2023-07-29T06:00:40;97169.72;;;22.70;81.19
9746;BME280;4912;50.836;12.958;2023-07-29T06:03:10;97175.00;;;22.59;80.98
9746;BME280;4912;50.836;12.958;2023-07-29T06:05:41;97186.28;;;22.59;81.57
9746;BME280;4912;50.836;12.958;2023-07-29T06:08:12;97174.84;;;22.49;81.78
9746;BME280;4912;50.836;12.958;2023-07-29T06:10:42;97185.34;;;22.49;81.72
9746;BME280;4912;50.836;12.958;2023-07-29T06:13:15;97190.25;;;22.56;81.16
9746;BME280;4912;50.836;12.958;2023-07-29T06:15:46;97181.97;;;22.58;80.91
9746;BME280;4912;50.836;12.958;2023-07-29T06:18:17;97183.81;;;22.63;80.47
9746;BME280;4912;50.836;12.958;2023-07-29T06:20:47;97184.03;;;22.80;79.80
9746;BME280;4912;50.836;12.958;2023-07-29T06:23:21;97177.25;;;22.91;78.00
9746;BME280;4912;50.836;12.958;2023-07-29T06:25:51;97180.22;;;23.00;77.34
9746;BME280;4912;50.836;12.958;2023-07-29T06:28:24;97180.59;;;23.04;75.59
9746;BME280;4912;50.836;12.958;2023-07-29T06:30:55;97179.06;;;23.18;75.52
9746;BME280;4912;50.836;12.958;2023-07-29T06:33:26;97176.34;;;23.43;73.80
9746;BME280;4912;50.836;12.958;2023-07-29T06:35:57;97172.81;;;23.75;72.93
9746;BME280;4912;50.836;12.958;2023-07-29T06:38:27;97172.03;;;23.82;70.77
9746;BME280;4912;50.836;12.958;2023-07-29T06:40:58;97169.91;;;23.90;70.43
9746;BME280;4912;50.836;12.958;2023-07-29T06:43:31;97172.22;;;23.84;70.61
9746;BME280;4912;50.836;12.958;2023-07-29T06:46:01;97168.94;;;23.95;69.56
9746;BME280;4912;50.836;12.958;2023-07-29T06:48:32;97166.91;;;24.21;68.82
9746;BME280;4912;50.836;12.958;2023-07-29T06:51:03;97175.97;;;24.19;67.39
9746;BME280;4912;50.836;12.958;2023-07-29T06:53:33;97160.47;;;24.45;67.14
9746;BME280;4912;50.836;12.958;2023-07-29T06:56:03;97160.31;;;24.43;67.36
9746;BME280;4912;50.836;12.958;2023-07-29T06:58:37;97163.78;;;24.34;67.68
9746;BME280;4912;50.836;12.958;2023-07-29T07:01:07;97156.22;;;24.36;68.01
9746;BME280;4912;50.836;12.958;2023-07-29T07:03:38;97165.28;;;24.35;67.85
9746;BME280;4912;50.836;12.958;2023-07-29T07:06:12;97168.53;;;24.31;67.71
9746;BME280;4912;50.836;12.958;2023-07-29T07:08:42;97152.16;;;23.97;70.07
9746;BME280;4912;50.836;12.958;2023-07-29T07:11:13;97166.06;;;23.71;70.38
9746;BME280;4912;50.836;12.958;2023-07-29T07:13:46;97153.72;;;23.51;70.91
9746;BME280;4912;50.836;12.958;2023-07-29T07:16:17;97153.72;;;23.51;71.24
9746;BME280;4912;50.836;12.958;2023-07-29T07:18:47;97160.41;;;23.71;70.06
9746;BME280;4912;50.836;12.958;2023-07-29T07:21:18;97155.03;;;23.90;69.13
9746;BME280;4912;50.836;12.958;2023-07-29T07:23:49;97153.66;;;23.98;68.88
9746;BME280;4912;50.836;12.958;2023-07-29T07:26:19;97144.66;;;24.17;68.86
9746;BME280;4912;50.836;12.958;2023-07-29T07:28:52;97141.56;;;24.30;67.84
9746;BME280;4912;50.836;12.958;2023-07-29T07:31:23;97134.84;;;24.68;66.66
9746;BME280;4912;50.836;12.958;2023-07-29T07:33:54;97130.00;;;24.61;65.31
9746;BME280;4912;50.836;12.958;2023-07-29T07:36:24;97130.38;;;24.99;64.34
9746;BME280;4912;50.836;12.958;2023-07-29T07:38:55;97133.13;;;25.07;64.17
9746;BME280;4912;50.836;12.958;2023-07-29T07:41:25;97131.03;;;25.24;63.01
9746;BME280;4912;50.836;12.958;2023-07-29T07:43:58;97111.44;;;25.36;62.74
9746;BME280;4912;50.836;12.958;2023-07-29T07:46:29;97116.19;;;25.34;62.56
9746;BME280;4912;50.836;12.958;2023-07-29T07:49:00;97106.06;;;25.57;62.82
9746;BME280;4912;50.836;12.958;2023-07-29T07:51:30;97106.47;;;25.27;62.14
9746;BME280;4912;50.836;12.958;2023-07-29T07:54:01;97099.56;;;25.20;62.34
9746;BME280;4912;50.836;12.958;2023-07-29T07:56:31;97102.41;;;25.20;62.26
9746;BME280;4912;50.836;12.958;2023-07-29T07:59:05;97085.72;;;25.51;61.51
9746;BME280;4912;50.836;12.958;2023-07-29T08:01:36;97081.53;;;26.06;59.63
9746;BME280;4912;50.836;12.958;2023-07-29T08:04:07;97086.28;;;26.40;57.69
9746;BME280;4912;50.836;12.958;2023-07-29T08:06:38;97077.81;;;26.59;57.39
9746;BME280;4912;50.836;12.958;2023-07-29T08:09:08;97072.34;;;27.09;56.16
9746;BME280;4912;50.836;12.958;2023-07-29T08:11:39;97081.53;;;27.58;55.97
9746;BME280;4912;50.836;12.958;2023-07-29T08:14:12;97084.53;;;27.50;53.69
9746;BME280;4912;50.836;12.958;2023-07-29T08:16:43;97083.63;;;27.57;54.25
9746;BME280;4912;50.836;12.958;2023-07-29T08:19:14;97092.81;;;27.96;53.94
9746;BME280;4912;50.836;12.958;2023-07-29T08:21:48;97098.59;;;28.08;54.24
9746;BME280;4912;50.836;12.958;2023-07-29T08:24:19;97100.72;;;27.28;54.54
9746;BME280;4912;50.836;12.958;2023-07-29T08:26:50;97104.56;;;26.75;56.55
9746;BME280;4912;50.836;12.958;2023-07-29T08:29:23;97113.13;;;26.29;56.55
9746;BME280;4912;50.836;12.958;2023-07-29T08:31:54;97099.47;;;26.08;57.46
9746;BME280;4912;50.836;12.958;2023-07-29T08:34:25;97106.69;;;25.92;58.28
9746;BME280;4912;50.836;12.958;2023-07-29T08:36:56;97123.91;;;26.04;58.52
9746;BME280;4912;50.836;12.958;2023-07-29T08:39:27;97119.72;;;25.95;57.87
9746;BME280;4912;50.836;12.958;2023-07-29T08:42:01;97124.63;;;25.95;57.18
9746;BME280;4912;50.836;12.958;2023-07-29T08:44:41;97113.66;;;25.82;57.01
9746;BME280;4912;50.836;12.958;2023-07-29T08:47:12;97118.50;;;25.98;57.73
9746;BME280;4912;50.836;12.958;2023-07-29T08:49:45;97119.91;;;26.07;57.62
9746;BME280;4912;50.836;12.958;2023-07-29T08:52:16;97105.56;;;26.32;55.42
9746;BME280;4912;50.836;12.958;2023-07-29T08:54:47;97111.06;;;26.39;54.41
9746;BME280;4912;50.836;12.958;2023-07-29T08:57:20;97115.09;;;26.36;53.47
9746;BME280;4912;50.836;12.958;2023-07-29T08:59:55;97115.25;;;26.02;54.40
9746;BME280;4912;50.836;12.958;2023-07-29T09:02:27;97116.03;;;25.76;55.04
9746;BME280;4912;50.836;12.958;2023-07-29T09:04:58;97120.72;;;25.90;55.52
9746;BME280;4912;50.836;12.958;2023-07-29T09:07:29;97123.03;;;26.11;54.70
9746;BME280;4912;50.836;12.958;2023-07-29T09:10:00;97111.19;;;27.16;52.21
9746;BME280;4912;50.836;12.958;2023-07-29T09:12:31;97105.19;;;28.01;50.23
9746;BME280;4912;50.836;12.958;2023-07-29T09:15:05;97103.34;;;28.77;47.81
9746;BME280;4912;50.836;12.958;2023-07-29T09:17:37;97098.06;;;28.31;48.86
9746;BME280;4912;50.836;12.958;2023-07-29T09:20:10;97114.75;;;27.65;50.75
9746;BME280;4912;50.836;12.958;2023-07-29T09:22:43;97105.94;;;27.22;52.17
9746;BME280;4912;50.836;12.958;2023-07-29T09:25:14;97099.81;;;26.78;53.14
9746;BME280;4912;50.836;12.958;2023-07-29T09:27:46;97110.47;;;26.41;55.12
9746;BME280;4912;50.836;12.958;2023-07-29T09:30:19;97109.44;;;26.00;57.91
9746;BME280;4912;50.836;12.958;2023-07-29T09:32:55;97101.84;;;25.76;59.88
9746;BME280;4912;50.836;12.958;2023-07-29T09:35:28;97096.81;;;25.84;60.16
9746;BME280;4912;50.836;12.958;2023-07-29T09:38:00;97098.53;;;25.96;60.74
9746;BME280;4912;50.836;12.958;2023-07-29T09:40:35;97100.63;;;26.32;60.03
9746;BME280;4912;50.836;12.958;2023-07-29T09:43:07;97093.25;;;26.85;59.62
9746;BME280;4912;50.836;12.958;2023-07-29T09:45:42;97095.34;;;26.94;58.29
9746;BME280;4912;50.836;12.958;2023-07-29T09:48:12;97094.56;;;26.74;58.73
9746;BME280;4912;50.836;12.958;2023-07-29T09:50:43;97085.00;;;26.51;59.61
9746;BME280;4912;50.836;12.958;2023-07-29T09:53:14;97083.59;;;26.32;59.63
9746;BME280;4912;50.836;12.958;2023-07-29T09:55:46;97092.72;;;26.04;60.88
9746;BME280;4912;50.836;12.958;2023-07-29T09:58:25;97097.69;;;25.77;61.14
9746;BME280;4912;50.836;12.958;2023-07-29T10:01:00;97098.81;;;25.64;61.40
9746;BME280;4912;50.836;12.958;2023-07-29T10:03:31;97097.50;;;25.48;61.56
9746;BME280;4912;50.836;12.958;2023-07-29T10:06:03;97114.31;;;25.46;59.52
9746;BME280;4912;50.836;12.958;2023-07-29T10:08:35;97101.59;;;25.37;59.83
9746;BME280;4912;50.836;12.958;2023-07-29T10:11:06;97092.84;;;25.43;59.80
9746;BME280;4912;50.836;12.958;2023-07-29T10:13:38;97095.41;;;25.48;59.11
9746;BME280;4912;50.836;12.958;2023-07-29T10:16:21;97082.66;;;25.57;59.68
9746;BME280;4912;50.836;12.958;2023-07-29T10:18:54;97089.28;;;25.69;60.03
9746;BME280;4912;50.836;12.958;2023-07-29T10:21:27;97084.84;;;25.76;60.00
9746;BME280;4912;50.836;12.958;2023-07-29T10:24:01;97094.91;;;25.59;59.86
9746;BME280;4912;50.836;12.958;2023-07-29T10:26:34;97098.03;;;25.37;59.29
9746;BME280;4912;50.836;12.958;2023-07-29T10:29:12;97096.25;;;25.14;59.89
9746;BME280;4912;50.836;12.958;2023-07-29T10:31:47;97111.22;;;25.24;59.48
9746;BME280;4912;50.836;12.958;2023-07-29T10:34:19;97102.75;;;25.07;58.21
9746;BME280;4912;50.836;12.958;2023-07-29T10:36:51;97101.16;;;25.14;58.38
9746;BME280;4912;50.836;12.958;2023-07-29T10:39:24;97109.84;;;25.43;57.38
9746;BME280;4912;50.836;12.958;2023-07-29T10:41:56;97118.06;;;25.48;57.90
9746;BME280;4912;50.836;12.958;2023-07-29T10:44:46;97113.88;;;25.22;58.41
9746;BME280;4912;50.836;12.958;2023-07-29T10:47:21;97102.53;;;25.22;59.57
9746;BME280;4912;50.836;12.958;2023-07-29T10:49:56;97107.31;;;25.20;60.13
9746;BME280;4912;50.836;12.958;2023-07-29T10:52:39;97104.41;;;24.93;61.10
9746;BME280;4912;50.836;12.958;2023-07-29T10:55:29;97096.66;;;24.94;61.77
9746;BME280;4912;50.836;12.958;2023-07-29T10:58:11;97100.78;;;24.75;62.98
9746;BME280;4912;50.836;12.958;2023-07-29T11:00:45;97106.31;;;24.73;63.72
9746;BME280;4912;50.836;12.958;2023-07-29T11:03:18;97109.63;;;24.62;64.87
9746;BME280;4912;50.836;12.958;2023-07-29T11:05:52;97099.53;;;24.52;65.51
9746;BME280;4912;50.836;12.958;2023-07-29T11:08:27;97103.91;;;24.45;66.28
9746;BME280;4912;50.836;12.958;2023-07-29T11:11:05;97097.84;;;24.31;67.36
9746;BME280;4912;50.836;12.958;2023-07-29T11:13:37;97094.75;;;24.20;68.34
9746;BME280;4912;50.836;12.958;2023-07-29T11:16:10;97095.31;;;24.18;68.94
9746;BME280;4912;50.836;12.958;2023-07-29T11:18:44;97092.69;;;24.13;69.76
9746;BME280;4912;50.836;12.958;2023-07-29T11:21:17;97098.53;;;24.15;70.32
9746;BME280;4912;50.836;12.958;2023-07-29T11:23:48;97106.03;;;24.20;70.25
9746;BME280;4912;50.836;12.958;2023-07-29T11:26:19;97097.78;;;24.14;69.70
9746;BME280;4912;50.836;12.958;2023-07-29T11:28:50;97101.59;;;24.09;69.76
9746;BME280;4912;50.836;12.958;2023-07-29T11:31:21;97104.34;;;24.17;69.63
9746;BME280;4912;50.836;12.958;2023-07-29T11:33:54;97091.19;;;24.12;70.00
9746;BME280;4912;50.836;12.958;2023-07-29T11:36:25;97090.19;;;24.17;69.82
9746;BME280;4912;50.836;12.958;2023-07-29T11:38:56;97091.66;;;24.25;70.02
9746;BME280;4912;50.836;12.958;2023-07-29T11:41:26;97086.91;;;24.28;69.86
9746;BME280;4912;50.836;12.958;2023-07-29T11:43:58;97095.28;;;24.43;68.83
9746;BME280;4912;50.836;12.958;2023-07-29T11:46:28;97097.81;;;24.56;68.76
9746;BME280;4912;50.836;12.958;2023-07-29T11:49:02;97098.13;;;24.43;68.34
9746;BME280;4912;50.836;12.958;2023-07-29T11:51:33;97087.94;;;24.40;69.49
9746;BME280;4912;50.836;12.958;2023-07-29T11:54:05;97090.25;;;24.34;69.51
9746;BME280;4912;50.836;12.958;2023-07-29T11:56:36;97083.53;;;24.29;69.31
9746;BME280;4912;50.836;12.958;2023-07-29T11:59:07;97091.09;;;24.27;69.68
9746;BME280;4912;50.836;12.958;2023-07-29T12:01:38;97078.56;;;24.37;69.60
9746;BME280;4912;50.836;12.958;2023-07-29T12:04:13;97076.63;;;24.40;69.52
9746;BME280;4912;50.836;12.958;2023-07-29T12:06:45;97068.13;;;24.23;69.13
9746;BME280;4912;50.836;12.958;2023-07-29T12:09:16;97075.03;;;24.04;69.21
9746;BME280;4912;50.836;12.958;2023-07-29T12:11:47;97062.63;;;24.00;69.41
9746;BME280;4912;50.836;12.958;2023-07-29T12:14:19;97076.59;;;23.73;70.82
9746;BME280;4912;50.836;12.958;2023-07-29T12:16:50;97081.25;;;23.46;72.21
9746;BME280;4912;50.836;12.958;2023-07-29T12:19:24;97060.91;;;23.15;75.08
9746;BME280;4912;50.836;12.958;2023-07-29T12:22:02;97072.25;;;23.00;76.30
9746;BME280;4912;50.836;12.958;2023-07-29T12:24:36;97066.16;;;22.78;77.94
9746;BME280;4912;50.836;12.958;2023-07-29T12:27:11;97058.41;;;22.71;80.18
9746;BME280;4912;50.836;12.958;2023-07-29T12:29:43;97063.69;;;22.75;81.79
9746;BME280;4912;50.836;12.958;2023-07-29T12:32:16;97056.84;;;22.93;80.89
9746;BME280;4912;50.836;12.958;2023-07-29T12:34:49;97070.81;;;23.31;77.59
9746;BME280;4912;50.836;12.958;2023-07-29T12:37:20;97063.94;;;24.66;72.62
9746;BME280;4912;50.836;12.958;2023-07-29T12:39:51;97060.25;;;25.24;69.83
9746;BME280;4912;50.836;12.958;2023-07-29T12:42:22;97061.69;;;25.69;66.32
9746;BME280;4912;50.836;12.958;2023-07-29T12:44:52;97057.47;;;27.40;60.14
9746;BME280;4912;50.836;12.958;2023-07-29T12:47:23;97047.25;;;28.58;55.71
9746;BME280;4912;50.836;12.958;2023-07-29T12:49:56;97056.28;;;27.52;56.76
9746;BME280;4912;50.836;12.958;2023-07-29T12:52:27;97053.50;;;27.04;58.72
9746;BME280;4912;50.836;12.958;2023-07-29T12:54:58;97060.69;;;27.05;59.75
9746;BME280;4912;50.836;12.958;2023-07-29T12:57:29;97058.81;;;27.48;58.79
9746;BME280;4912;50.836;12.958;2023-07-29T12:59:59;97047.13;;;28.56;54.23
9746;BME280;4912;50.836;12.958;2023-07-29T13:02:31;97051.22;;;29.40;50.58
9746;BME280;4912;50.836;12.958;2023-07-29T13:05:09;97028.16;;;30.04;49.18
9746;BME280;4912;50.836;12.958;2023-07-29T13:07:42;97038.13;;;31.00;47.20
9746;BME280;4912;50.836;12.958;2023-07-29T13:10:13;97038.84;;;31.12;46.52
9746;BME280;4912;50.836;12.958;2023-07-29T13:12:44;97033.25;;;31.40;45.19
9746;BME280;4912;50.836;12.958;2023-07-29T13:15:16;97025.66;;;31.58;44.68
9746;BME280;4912;50.836;12.958;2023-07-29T13:17:46;97027.06;;;32.23;42.13
9746;BME280;4912;50.836;12.958;2023-07-29T13:20:20;97025.25;;;32.30;40.40
9746;BME280;4912;50.836;12.958;2023-07-29T13:22:51;97030.44;;;32.06;40.31
9746;BME280;4912;50.836;12.958;2023-07-29T13:25:21;97010.31;;;32.45;40.04
9746;BME280;4912;50.836;12.958;2023-07-29T13:27:52;97021.03;;;32.87;38.98
9746;BME280;4912;50.836;12.958;2023-07-29T13:30:23;97007.44;;;33.31;36.62
9746;BME280;4912;50.836;12.958;2023-07-29T13:32:54;97010.28;;;33.02;36.31
9746;BME280;4912;50.836;12.958;2023-07-29T13:35:29;97007.41;;;32.72;36.35